createdAt,value
2022-09-18T00:01:16.208Z,75461.97
2022-09-18T00:03:43.640Z,75457.91
2022-09-18T00:06:20.483Z,75466.00
2022-09-18T00:08:52.234Z,75466.00
2022-09-18T00:11:22.338Z,75461.97
2022-09-18T00:13:50.610Z,75457.91
2022-09-18T00:16:20.176Z,75466.00
2022-09-18T00:18:48.094Z,75461.97
2022-09-18T00:21:18.222Z,75466.00
2022-09-18T00:23:46.128Z,75466.00
2022-09-18T00:26:15.223Z,75470.06
2022-09-18T00:28:42.412Z,75470.06
2022-09-18T00:31:15.634Z,75470.06
2022-09-18T00:33:43.292Z,75472.09
2022-09-18T00:36:13.428Z,75466.00
2022-09-18T00:38:41.146Z,75468.03
2022-09-18T00:41:13.176Z,75466.00
2022-09-18T00:43:40.569Z,75472.09
2022-09-18T00:46:36.763Z,75474.13
2022-09-18T00:49:25.402Z,75472.09
2022-09-18T00:51:55.613Z,75466.00
2022-09-18T00:54:31.772Z,75466.00
2022-09-18T00:57:10.252Z,75470.06
2022-09-18T00:59:39.938Z,75461.97
2022-09-18T01:02:06.767Z,75461.97
2022-09-18T01:04:34.044Z,75470.06
2022-09-18T01:07:35.354Z,75463.97
2022-09-18T01:10:17.448Z,75461.97
2022-09-18T01:13:02.164Z,75457.91
2022-09-18T01:15:54.636Z,75457.91
2022-09-18T01:18:21.681Z,75449.81
2022-09-18T01:21:04.554Z,75447.78
2022-09-18T01:23:52.648Z,75445.75
2022-09-18T01:26:45.832Z,75449.81
2022-09-18T01:29:23.640Z,75445.75
2022-09-18T01:31:56.504Z,75449.81
2022-09-18T01:34:44.930Z,75453.84
2022-09-18T01:37:17.067Z,75457.91
2022-09-18T01:39:57.097Z,75459.94
2022-09-18T01:42:28.646Z,75461.97
2022-09-18T01:44:59.336Z,75461.97
2022-09-18T01:47:32.167Z,75451.81
2022-09-18T01:50:01.770Z,75453.84
2022-09-18T01:52:35.244Z,75453.84
2022-09-18T01:55:06.913Z,75447.78
2022-09-18T01:57:46.287Z,75449.81
2022-09-18T02:00:14.488Z,75445.75
2022-09-18T02:02:51.959Z,75449.81
2022-09-18T02:05:43.523Z,75445.75
2022-09-18T02:08:27.059Z,75441.69
2022-09-18T02:11:08.594Z,75439.66
2022-09-18T02:13:40.536Z,75437.63
2022-09-18T02:16:18.283Z,75429.53
2022-09-18T02:18:51.205Z,75439.66
2022-09-18T02:21:26.259Z,75429.53
2022-09-18T02:23:56.471Z,75441.69
2022-09-18T02:26:24.089Z,75441.69
2022-09-18T02:28:51.093Z,75441.69
2022-09-18T02:31:18.361Z,75441.69
2022-09-18T02:33:45.397Z,75441.69
2022-09-18T02:36:32.463Z,75435.63
2022-09-18T02:39:28.534Z,75441.69
2022-09-18T02:42:10.536Z,75437.63
2022-09-18T02:45:06.591Z,75429.53
2022-09-18T02:48:10.663Z,75431.56
2022-09-18T02:51:10.851Z,75425.47
2022-09-18T02:54:12.069Z,75429.53
2022-09-18T02:56:52.907Z,75421.44
2022-09-18T02:59:26.633Z,75417.38
2022-09-18T03:01:58.826Z,75413.31
2022-09-18T03:04:28.013Z,75399.13
2022-09-18T03:07:06.581Z,75409.28
2022-09-18T03:09:40.096Z,75413.31
2022-09-18T03:12:08.818Z,75419.41
2022-09-18T03:14:41.203Z,75421.44
2022-09-18T03:17:09.493Z,75413.31
2022-09-18T03:19:36.277Z,75405.22
2022-09-18T03:22:03.422Z,75405.22
2022-09-18T03:24:34.144Z,75409.28
2022-09-18T03:27:02.945Z,75409.28
2022-09-18T03:29:30.064Z,75421.44
2022-09-18T03:31:57.866Z,75421.44
2022-09-18T03:34:24.953Z,75425.47
2022-09-18T03:36:51.941Z,75421.44
2022-09-18T03:39:19.312Z,75441.69
2022-09-18T03:41:47.759Z,75429.53
2022-09-18T03:44:14.685Z,75429.53
2022-09-18T03:46:44.234Z,75433.59
2022-09-18T03:49:11.191Z,75429.53
2022-09-18T03:51:40.202Z,75433.59
2022-09-18T03:54:08.791Z,75433.59
2022-09-18T03:56:58.431Z,75427.50
2022-09-18T04:00:00.928Z,75431.56
2022-09-18T04:02:43.423Z,75437.63
2022-09-18T04:05:29.320Z,75425.47
2022-09-18T04:08:14.769Z,75425.47
2022-09-18T04:10:47.464Z,75423.47
2022-09-18T04:13:14.611Z,75425.47
2022-09-18T04:15:41.681Z,75425.47
2022-09-18T04:18:09.429Z,75427.50
2022-09-18T04:20:36.223Z,75429.53
2022-09-18T04:23:05.350Z,75425.47
2022-09-18T04:25:34.034Z,75429.53
2022-09-18T04:28:01.591Z,75417.38
2022-09-18T04:30:28.880Z,75425.47
2022-09-18T04:32:55.922Z,75429.53
2022-09-18T04:35:24.712Z,75425.47
2022-09-18T04:37:51.580Z,75423.47
2022-09-18T04:40:18.630Z,75429.53
2022-09-18T04:42:46.541Z,75411.28
2022-09-18T04:45:13.688Z,75423.47
2022-09-18T04:47:41.340Z,75425.47
2022-09-18T04:50:08.969Z,75421.44
2022-09-18T04:52:36.065Z,75421.44
2022-09-18T04:55:04.429Z,75409.28
2022-09-18T04:57:32.148Z,75409.28
2022-09-18T04:59:59.830Z,75409.28
2022-09-18T05:02:26.930Z,75413.31
2022-09-18T05:04:54.148Z,75409.28
2022-09-18T05:07:34.482Z,75417.38
2022-09-18T05:10:01.874Z,75433.59
2022-09-18T05:12:31.018Z,75423.47
2022-09-18T05:14:58.286Z,75433.59
2022-09-18T05:17:25.218Z,75433.59
2022-09-18T05:19:59.917Z,75445.75
2022-09-18T05:22:31.371Z,75449.81
2022-09-18T05:24:58.294Z,75453.84
2022-09-18T05:27:27.073Z,75461.97
2022-09-18T05:29:55.489Z,75453.84
2022-09-18T05:32:28.047Z,75470.06
2022-09-18T05:34:55.900Z,75468.03
2022-09-18T05:37:22.836Z,75466.00
2022-09-18T05:39:53.610Z,75461.97
2022-09-18T05:42:20.643Z,75461.97
2022-09-18T05:44:47.464Z,75466.00
2022-09-18T05:47:19.711Z,75466.00
2022-09-18T05:49:46.582Z,75461.97
2022-09-18T05:52:13.406Z,75461.97
2022-09-18T05:54:40.954Z,75468.03
2022-09-18T05:57:09.268Z,75470.06
2022-09-18T05:59:36.136Z,75476.16
2022-09-18T06:02:04.732Z,75461.97
2022-09-18T06:05:07.486Z,75470.06
2022-09-18T06:07:34.482Z,75461.97
2022-09-18T06:10:01.400Z,75463.97
2022-09-18T06:12:28.260Z,75466.00
2022-09-18T06:14:55.389Z,75463.97
2022-09-18T06:17:24.501Z,75466.00
2022-09-18T06:19:54.238Z,75466.00
2022-09-18T06:22:21.611Z,75466.00
2022-09-18T06:24:48.734Z,75472.09
2022-09-18T06:27:18.501Z,75474.13
2022-09-18T06:29:45.568Z,75476.16
2022-09-18T06:32:16.052Z,75470.06
2022-09-18T06:34:43.042Z,75468.03
2022-09-18T06:37:13.578Z,75470.06
2022-09-18T06:39:43.737Z,75474.13
2022-09-18T06:42:19.496Z,75466.00
2022-09-18T06:45:15.576Z,75474.13
2022-09-18T06:47:44.644Z,75478.16
2022-09-18T06:50:12.724Z,75476.16
2022-09-18T06:52:39.539Z,75470.06
2022-09-18T06:55:06.926Z,75486.28
2022-09-18T06:57:34.028Z,75494.38
2022-09-18T07:00:01.022Z,75490.31
2022-09-18T07:02:33.807Z,75498.44
2022-09-18T07:05:25.624Z,75494.38
2022-09-18T07:07:53.160Z,75494.38
2022-09-18T07:10:20.405Z,75508.56
2022-09-18T07:12:48.956Z,75514.66
2022-09-18T07:15:20.909Z,75518.69
2022-09-18T07:17:47.811Z,75526.81
2022-09-18T07:20:17.080Z,75526.81
2022-09-18T07:22:52.750Z,75518.69
2022-09-18T07:25:20.637Z,75514.66
2022-09-18T07:27:49.938Z,75514.66
2022-09-18T07:30:18.953Z,75506.53
2022-09-18T07:32:46.588Z,75514.66
2022-09-18T07:35:17.570Z,75532.88
2022-09-18T07:37:44.499Z,75551.13
2022-09-18T07:40:17.367Z,75573.41
2022-09-18T07:43:07.578Z,75591.66
2022-09-18T07:45:36.687Z,75595.69
2022-09-18T07:48:05.298Z,75620.03
2022-09-18T07:50:36.296Z,75624.06
2022-09-18T07:53:05.423Z,75624.06
2022-09-18T07:55:37.000Z,75615.97
2022-09-18T07:58:06.847Z,75618.00
2022-09-18T08:01:11.870Z,75636.22
2022-09-18T08:03:45.925Z,75656.50
2022-09-18T08:06:12.858Z,75662.59
2022-09-18T08:09:06.076Z,75652.44
2022-09-18T08:11:54.167Z,75660.56
2022-09-18T08:14:29.222Z,75664.59
2022-09-18T08:17:22.321Z,75668.66
2022-09-18T08:20:24.649Z,75674.75
2022-09-18T08:22:54.650Z,75680.81
2022-09-18T08:25:27.467Z,75684.88
2022-09-18T08:28:13.722Z,75684.88
2022-09-18T08:30:53.546Z,75684.88
2022-09-18T08:33:20.972Z,75676.75
2022-09-18T08:35:48.840Z,75672.72
2022-09-18T08:38:33.278Z,75660.56
2022-09-18T08:41:55.408Z,75660.56
2022-09-18T08:44:40.418Z,75652.44
2022-09-18T08:47:18.975Z,75648.41
2022-09-18T08:49:54.500Z,75640.28
2022-09-18T08:52:24.553Z,75628.13
2022-09-18T08:55:15.035Z,75626.09
2022-09-18T08:58:03.303Z,75620.03
2022-09-18T09:00:38.724Z,75624.06
2022-09-18T09:03:25.548Z,75615.97
2022-09-18T09:05:58.770Z,75622.06
2022-09-18T09:09:04.601Z,75615.97
2022-09-18T09:11:34.046Z,75603.81
2022-09-18T09:14:55.961Z,75611.91
2022-09-18T09:17:41.693Z,75599.75
2022-09-18T09:20:35.457Z,75597.72
2022-09-18T09:23:12.744Z,75587.59
2022-09-18T09:26:04.226Z,75569.34
2022-09-18T09:29:10.250Z,75571.38
2022-09-18T09:32:06.264Z,75563.28
2022-09-18T09:34:58.354Z,75559.22
2022-09-18T09:37:48.340Z,75559.22
2022-09-18T09:40:32.513Z,75543.00
2022-09-18T09:43:11.531Z,75559.22
2022-09-18T09:45:46.250Z,75547.06
2022-09-18T09:48:35.243Z,75532.88
2022-09-18T09:51:05.458Z,75514.66
2022-09-18T09:53:32.437Z,75506.53
2022-09-18T09:56:26.436Z,75490.31
2022-09-18T09:59:21.549Z,75478.16
2022-09-18T10:02:37.245Z,75476.16
2022-09-18T10:05:39.534Z,75470.06
2022-09-18T10:08:27.362Z,75474.13
2022-09-18T10:11:00.672Z,75466.00
2022-09-18T10:13:40.318Z,75437.63
2022-09-18T10:16:16.984Z,75425.47
2022-09-18T10:18:47.238Z,75433.59
2022-09-18T10:21:24.480Z,75453.84
2022-09-18T10:24:15.952Z,75453.84
2022-09-18T10:26:53.901Z,75441.69
2022-09-18T10:29:21.038Z,75429.53
2022-09-18T10:31:54.410Z,75429.53
2022-09-18T10:34:42.435Z,75429.53
2022-09-18T10:37:29.505Z,75425.47
2022-09-18T10:40:37.331Z,75405.22
2022-09-18T10:43:07.707Z,75405.22
2022-09-18T10:45:41.849Z,75403.19
2022-09-18T10:48:28.161Z,75409.28
2022-09-18T10:50:57.603Z,75403.19
2022-09-18T10:53:39.835Z,75401.16
2022-09-18T10:56:20.960Z,75401.16
2022-09-18T10:58:51.449Z,75409.28
2022-09-18T11:01:19.599Z,75413.31
2022-09-18T11:04:02.829Z,75413.31
2022-09-18T11:06:35.889Z,75401.16
2022-09-18T11:09:30.529Z,75405.22
2022-09-18T11:11:57.719Z,75393.06
2022-09-18T11:14:30.971Z,75386.97
2022-09-18T11:17:05.450Z,75382.94
2022-09-18T11:19:40.007Z,75389.00
2022-09-18T11:22:45.358Z,75386.97
2022-09-18T11:25:22.837Z,75382.94
2022-09-18T11:27:58.037Z,75366.72
2022-09-18T11:30:35.542Z,75413.31
2022-09-18T11:33:27.095Z,75348.47
2022-09-18T11:36:01.631Z,75348.47
2022-09-18T11:38:31.954Z,75344.44
2022-09-18T11:41:01.782Z,75336.31
2022-09-18T11:43:41.212Z,75364.69
2022-09-18T11:46:31.889Z,75368.75
2022-09-18T11:49:07.712Z,75372.78
2022-09-18T11:51:53.692Z,75380.91
2022-09-18T11:54:42.306Z,75372.78
2022-09-18T11:57:17.671Z,75372.78
2022-09-18T11:59:55.154Z,75356.59
2022-09-18T12:02:41.306Z,75348.47
2022-09-18T12:05:58.997Z,75348.47
2022-09-18T12:08:55.018Z,75344.44
2022-09-18T12:12:00.848Z,75348.47
2022-09-18T12:14:41.792Z,75356.59
2022-09-18T12:17:34.691Z,75370.78
2022-09-18T12:20:06.986Z,75340.38
2022-09-18T12:22:41.747Z,75340.38
2022-09-18T12:25:14.323Z,75334.28
2022-09-18T12:28:41.343Z,75346.44
2022-09-18T12:32:01.606Z,75332.28
2022-09-18T12:34:54.857Z,75356.59
2022-09-18T12:37:31.881Z,75340.38
2022-09-18T12:40:24.901Z,75348.47
2022-09-18T12:43:10.275Z,75350.50
2022-09-18T12:45:42.292Z,75364.69
2022-09-18T12:48:27.959Z,75344.44
2022-09-18T12:51:01.005Z,75316.06
2022-09-18T12:53:49.286Z,75297.81
2022-09-18T12:56:16.299Z,75291.75
2022-09-18T12:58:58.425Z,75283.63
2022-09-18T13:01:31.778Z,75267.44
2022-09-18T13:04:30.373Z,75267.44
2022-09-18T13:07:26.399Z,75271.47
2022-09-18T13:10:17.405Z,75273.50
2022-09-18T13:13:15.478Z,75267.44
2022-09-18T13:15:49.069Z,75259.31
2022-09-18T13:18:19.559Z,75271.47
2022-09-18T13:20:46.986Z,75259.31
2022-09-18T13:23:27.790Z,75253.25
2022-09-18T13:25:56.871Z,75243.09
2022-09-18T13:28:27.551Z,75230.94
2022-09-18T13:31:22.757Z,75226.91
2022-09-18T13:34:01.943Z,75214.75
2022-09-18T13:36:32.923Z,75210.69
2022-09-18T13:39:04.827Z,75235.00
2022-09-18T13:41:48.876Z,75247.16
2022-09-18T13:44:28.518Z,75263.38
2022-09-18T13:46:58.281Z,75279.59
2022-09-18T13:49:32.115Z,75259.31
2022-09-18T13:52:34.050Z,75261.34
2022-09-18T13:55:13.062Z,75263.38
2022-09-18T13:57:41.512Z,75267.44
2022-09-18T14:00:20.561Z,75263.38
2022-09-18T14:02:48.980Z,75279.59
2022-09-18T14:05:38.536Z,75287.69
2022-09-18T14:08:10.300Z,75295.78
2022-09-18T14:10:54.906Z,75307.94
2022-09-18T14:13:38.267Z,75336.31
2022-09-18T14:16:20.596Z,75344.44
2022-09-18T14:18:47.558Z,75364.69
2022-09-18T14:21:17.629Z,75368.75
2022-09-18T14:23:47.063Z,75368.75
2022-09-18T14:26:29.547Z,75368.75
2022-09-18T14:29:05.184Z,75364.69
2022-09-18T14:31:49.053Z,75362.66
2022-09-18T14:34:23.106Z,75368.75
2022-09-18T14:36:55.699Z,75352.53
2022-09-18T14:39:35.445Z,75360.63
2022-09-18T14:42:23.515Z,75366.72
2022-09-18T14:44:54.255Z,75372.78
2022-09-18T14:47:23.753Z,75368.75
2022-09-18T14:49:51.387Z,75384.97
2022-09-18T14:52:22.569Z,75393.06
2022-09-18T14:54:51.608Z,75384.97
2022-09-18T14:57:26.152Z,75397.13
2022-09-18T14:59:58.628Z,75393.06
2022-09-18T15:02:52.617Z,75401.16
2022-09-18T15:05:22.388Z,75401.16
2022-09-18T15:08:07.195Z,75405.22
2022-09-18T15:10:37.954Z,75397.13
2022-09-18T15:13:09.337Z,75401.16
2022-09-18T15:15:39.495Z,75384.97
2022-09-18T15:18:24.026Z,75393.06
2022-09-18T15:20:53.018Z,75397.13
2022-09-18T15:23:27.617Z,75397.13
2022-09-18T15:25:58.849Z,75384.97
2022-09-18T15:28:28.931Z,75384.97
2022-09-18T15:31:03.794Z,75380.91
2022-09-18T15:33:35.096Z,75380.91
2022-09-18T15:36:04.685Z,75380.91
2022-09-18T15:38:45.748Z,75372.78
2022-09-18T15:41:31.396Z,75372.78
2022-09-18T15:43:58.479Z,75364.69
2022-09-18T15:46:29.104Z,75364.69
2022-09-18T15:49:00.392Z,75366.72
2022-09-18T15:51:30.281Z,75374.81
2022-09-18T15:54:03.333Z,75376.84
2022-09-18T15:56:33.950Z,75380.91
2022-09-18T15:59:04.275Z,75384.97
2022-09-18T16:01:40.016Z,75384.97
2022-09-18T16:04:24.278Z,75384.97
2022-09-18T16:07:00.427Z,75386.97
2022-09-18T16:09:38.209Z,75389.00
2022-09-18T16:12:26.797Z,75389.00
2022-09-18T16:14:56.677Z,75384.97
2022-09-18T16:17:32.816Z,75384.97
2022-09-18T16:20:27.114Z,75393.06
2022-09-18T16:22:58.538Z,75389.00
2022-09-18T16:25:29.137Z,75393.06
2022-09-18T16:27:59.332Z,75391.03
2022-09-18T16:30:28.005Z,75384.97
2022-09-18T16:33:14.815Z,75384.97
2022-09-18T16:35:41.833Z,75384.97
2022-09-18T16:38:09.621Z,75389.00
2022-09-18T16:40:36.795Z,75384.97
2022-09-18T16:43:03.804Z,75376.84
2022-09-18T16:45:31.042Z,75382.94
2022-09-18T16:48:00.572Z,75380.91
2022-09-18T16:50:28.114Z,75380.91
2022-09-18T16:52:58.479Z,75384.97
2022-09-18T16:55:29.042Z,75389.00
2022-09-18T16:57:57.374Z,75393.06
2022-09-18T17:00:25.013Z,75389.00
2022-09-18T17:02:53.008Z,75393.06
2022-09-18T17:05:20.024Z,75386.97
2022-09-18T17:07:47.056Z,75393.06
2022-09-18T17:10:13.980Z,75389.00
2022-09-18T17:12:41.892Z,75393.06
2022-09-18T17:15:10.279Z,75389.00
2022-09-18T17:17:37.222Z,75389.00
2022-09-18T17:20:05.599Z,75384.97
2022-09-18T17:22:33.197Z,75389.00
2022-09-18T17:25:00.015Z,75380.91
2022-09-18T17:27:26.906Z,75380.91
2022-09-18T17:29:54.284Z,75389.00
2022-09-18T17:32:21.401Z,75389.00
2022-09-18T17:34:48.403Z,75376.84
2022-09-18T17:37:15.745Z,75389.00
2022-09-18T17:39:42.655Z,75384.97
2022-09-18T17:42:09.532Z,75376.84
2022-09-18T17:44:37.154Z,75380.91
2022-09-18T17:47:04.057Z,75380.91
2022-09-18T17:49:34.844Z,75378.88
2022-09-18T17:52:02.239Z,75393.06
2022-09-18T17:54:29.144Z,75384.97
2022-09-18T17:56:56.045Z,75397.13
2022-09-18T17:59:23.133Z,75393.06
2022-09-18T18:01:50.622Z,75409.28
2022-09-18T18:04:18.015Z,75409.28
2022-09-18T18:06:48.927Z,75413.31
2022-09-18T18:09:16.397Z,75425.47
2022-09-18T18:11:44.314Z,75427.50
2022-09-18T18:14:11.633Z,75431.56
2022-09-18T18:16:41.104Z,75447.78
2022-09-18T18:19:12.472Z,75449.81
2022-09-18T18:21:41.293Z,75457.91
2022-09-18T18:24:12.940Z,75470.06
2022-09-18T18:26:40.676Z,75482.22
2022-09-18T18:29:11.568Z,75482.22
2022-09-18T18:31:40.662Z,75488.31
2022-09-18T18:34:10.837Z,75486.28
2022-09-18T18:36:40.043Z,75492.34
2022-09-18T18:39:12.016Z,75502.50
2022-09-18T18:41:39.730Z,75506.53
2022-09-18T18:44:07.346Z,75498.44
2022-09-18T18:46:36.473Z,75508.56
2022-09-18T18:49:12.928Z,75514.66
2022-09-18T18:51:47.524Z,75514.66
2022-09-18T18:54:18.308Z,75514.66
2022-09-18T18:56:47.060Z,75514.66
2022-09-18T18:59:17.283Z,75518.69
2022-09-18T19:01:45.320Z,75522.75
2022-09-18T19:04:15.439Z,75514.66
2022-09-18T19:06:44.454Z,75518.69
2022-09-18T19:09:20.259Z,75518.69
2022-09-18T19:11:49.759Z,75522.75
2022-09-18T19:14:20.467Z,75524.78
2022-09-18T19:16:48.711Z,75530.84
2022-09-18T19:19:17.678Z,75538.97
2022-09-18T19:21:44.795Z,75541.00
2022-09-18T19:24:12.847Z,75538.97
2022-09-18T19:26:41.213Z,75551.13
2022-09-18T19:29:12.298Z,75551.13
2022-09-18T19:31:41.134Z,75561.25
2022-09-18T19:34:11.883Z,75563.28
2022-09-18T19:36:39.955Z,75571.38
2022-09-18T19:39:08.585Z,75571.38
2022-09-18T19:41:47.503Z,75579.50
2022-09-18T19:44:23.011Z,75587.59
2022-09-18T19:46:52.293Z,75591.66
2022-09-18T19:49:22.514Z,75607.88
2022-09-18T19:51:49.402Z,75607.88
2022-09-18T19:54:16.271Z,75615.97
2022-09-18T19:56:48.307Z,75611.91
2022-09-18T19:59:17.056Z,75607.88
2022-09-18T20:01:44.887Z,75620.03
2022-09-18T20:04:11.816Z,75620.03
2022-09-18T20:06:40.504Z,75615.97
2022-09-18T20:09:08.014Z,75611.91
2022-09-18T20:11:35.355Z,75620.03
2022-09-18T20:14:02.193Z,75615.97
2022-09-18T20:16:29.646Z,75620.03
2022-09-18T20:18:56.528Z,75618.00
2022-09-18T20:21:24.168Z,75626.09
2022-09-18T20:23:56.012Z,75620.03
2022-09-18T20:26:22.691Z,75628.13
2022-09-18T20:28:49.675Z,75628.13
2022-09-18T20:31:17.092Z,75624.06
2022-09-18T20:33:44.425Z,75624.06
2022-09-18T20:36:12.118Z,75628.13
2022-09-18T20:38:41.220Z,75632.19
2022-09-18T20:41:16.070Z,75632.19
2022-09-18T20:43:44.174Z,75632.19
2022-09-18T20:46:15.879Z,75632.19
2022-09-18T20:48:46.386Z,75636.22
2022-09-18T20:51:14.850Z,75640.28
2022-09-18T20:53:45.741Z,75632.19
2022-09-18T20:56:14.547Z,75632.19
2022-09-18T20:58:42.431Z,75628.13
2022-09-18T21:01:12.151Z,75640.28
2022-09-18T21:03:42.776Z,75624.06
2022-09-18T21:06:22.437Z,75620.03
2022-09-18T21:08:53.594Z,75624.06
2022-09-18T21:11:28.527Z,75611.91
2022-09-18T21:13:59.591Z,75605.84
2022-09-18T21:16:29.681Z,75607.88
2022-09-18T21:18:57.863Z,75607.88
2022-09-18T21:21:26.978Z,75609.88
2022-09-18T21:24:02.126Z,75603.81
2022-09-18T21:26:35.568Z,75599.75
2022-09-18T21:29:04.816Z,75599.75
2022-09-18T21:31:35.581Z,75595.69
2022-09-18T21:34:04.517Z,75597.72
2022-09-18T21:36:38.553Z,75597.72
2022-09-18T21:39:08.877Z,75591.66
2022-09-18T21:41:38.071Z,75587.59
2022-09-18T21:44:08.750Z,75585.56
2022-09-18T21:46:38.064Z,75583.53
2022-09-18T21:49:06.873Z,75591.66
2022-09-18T21:51:35.182Z,75587.59
2022-09-18T21:54:05.592Z,75591.66
2022-09-18T21:56:33.312Z,75583.53
2022-09-18T21:59:00.655Z,75589.63
2022-09-18T22:01:33.663Z,75585.56
2022-09-18T22:04:03.400Z,75587.59
2022-09-18T22:06:36.437Z,75587.59
2022-09-18T22:09:09.070Z,75583.53
2022-09-18T22:11:37.006Z,75587.59
2022-09-18T22:14:07.229Z,75589.63
2022-09-18T22:16:34.757Z,75591.66
2022-09-18T22:19:02.402Z,75599.75
2022-09-18T22:21:33.275Z,75595.69
2022-09-18T22:24:08.764Z,75595.69
2022-09-18T22:26:41.389Z,75599.75
2022-09-18T22:29:20.707Z,75599.75
2022-09-18T22:31:49.300Z,75595.69
2022-09-18T22:34:22.038Z,75603.81
2022-09-18T22:36:49.726Z,75609.88
2022-09-18T22:39:18.391Z,75605.84
2022-09-18T22:41:45.509Z,75607.88
2022-09-18T22:44:12.923Z,75609.88
2022-09-18T22:46:42.519Z,75611.91
2022-09-18T22:49:12.958Z,75620.03
2022-09-18T22:51:40.762Z,75630.16
2022-09-18T22:54:07.988Z,75632.19
2022-09-18T22:56:46.718Z,75632.19
2022-09-18T22:59:16.259Z,75642.31
2022-09-18T23:01:51.935Z,75644.34
2022-09-18T23:04:20.842Z,75648.41
2022-09-18T23:06:48.546Z,75648.41
2022-09-18T23:09:17.562Z,75652.44
2022-09-18T23:11:46.436Z,75660.56
2022-09-18T23:14:18.406Z,75664.59
2022-09-18T23:16:45.945Z,75664.59
2022-09-18T23:19:28.607Z,75680.81
2022-09-18T23:21:55.914Z,75680.81
2022-09-18T23:24:23.598Z,75692.97
2022-09-18T23:26:52.283Z,75692.97
2022-09-18T23:29:22.765Z,75701.09
2022-09-18T23:31:53.136Z,75705.13
2022-09-18T23:34:23.587Z,75713.25
2022-09-18T23:36:52.937Z,75713.25
2022-09-18T23:39:28.690Z,75717.28
2022-09-18T23:41:58.876Z,75715.28
2022-09-18T23:44:28.593Z,75717.28
2022-09-18T23:46:56.034Z,75721.34
2022-09-18T23:49:23.835Z,75733.50
2022-09-18T23:51:54.058Z,75725.41
2022-09-18T23:54:29.781Z,75727.44
2022-09-18T23:56:56.834Z,75737.56
2022-09-18T23:59:25.797Z,75745.66
